createdAt,value
2018-12-02T00:01:51.626Z,13.23
2018-12-02T00:04:22.336Z,13.50
2018-12-02T00:06:49.991Z,12.07
2018-12-02T00:09:17.605Z,11.57
2018-12-02T00:11:45.282Z,11.67
2018-12-02T00:14:14.779Z,12.27
2018-12-02T00:16:50.985Z,11.93
2018-12-02T00:19:19.820Z,11.00
2018-12-02T00:21:48.484Z,11.70
2018-12-02T00:24:18.054Z,11.70
2018-12-02T00:26:48.091Z,11.00
2018-12-02T00:29:16.060Z,13.27
2018-12-02T00:31:45.508Z,10.90
2018-12-02T00:34:17.191Z,11.43
2018-12-02T00:36:44.907Z,12.33
2018-12-02T00:39:13.020Z,11.00
2018-12-02T00:41:42.008Z,12.40
2018-12-02T00:44:15.628Z,12.10
2018-12-02T00:46:44.529Z,11.00
2018-12-02T00:49:12.791Z,11.57
2018-12-02T00:51:41.333Z,10.73
2018-12-02T00:54:10.564Z,11.17
2018-12-02T00:56:39.104Z,10.63
2018-12-02T00:59:07.166Z,12.20
2018-12-02T01:01:36.011Z,10.87
2018-12-02T01:04:03.917Z,12.73
2018-12-02T01:06:31.954Z,12.20
2018-12-02T01:09:00.646Z,11.30
2018-12-02T01:11:28.342Z,11.50
2018-12-02T01:13:56.142Z,10.87
2018-12-02T01:16:23.864Z,11.20
2018-12-02T01:18:51.611Z,11.07
2018-12-02T01:21:19.479Z,12.40
2018-12-02T01:23:47.992Z,12.40
2018-12-02T01:26:16.280Z,13.20
2018-12-02T01:28:44.487Z,12.33
2018-12-02T01:31:13.145Z,14.10
2018-12-02T01:33:42.074Z,13.50
2018-12-02T01:36:10.669Z,13.67
2018-12-02T01:38:39.008Z,14.07
2018-12-02T01:41:06.898Z,13.13
2018-12-02T01:43:34.875Z,12.27
2018-12-02T01:46:02.767Z,12.70
2018-12-02T01:48:31.780Z,12.70
2018-12-02T01:50:59.785Z,13.17
2018-12-02T01:53:27.776Z,12.40
2018-12-02T01:55:56.046Z,12.43
2018-12-02T01:58:24.041Z,11.23
2018-12-02T02:00:52.203Z,11.83
2018-12-02T02:03:20.620Z,11.07
2018-12-02T02:05:48.745Z,11.87
2018-12-02T02:08:16.987Z,11.53
2018-12-02T02:10:45.043Z,12.27
2018-12-02T02:13:12.714Z,12.03
2018-12-02T02:15:40.585Z,12.00
2018-12-02T02:18:08.395Z,10.77
2018-12-02T02:20:36.515Z,11.83
2018-12-02T02:23:04.875Z,11.40
2018-12-02T02:25:32.590Z,12.13
2018-12-02T02:28:00.446Z,12.60
2018-12-02T02:30:29.353Z,12.57
2018-12-02T02:32:57.496Z,12.10
2018-12-02T02:35:25.500Z,14.00
2018-12-02T02:37:54.334Z,14.43
2018-12-02T02:40:24.817Z,11.90
2018-12-02T02:42:52.927Z,12.60
2018-12-02T02:45:20.773Z,13.20
2018-12-02T02:47:48.627Z,15.53
2018-12-02T02:50:20.228Z,16.37
2018-12-02T02:52:51.042Z,15.40
2018-12-02T02:55:18.794Z,14.93
2018-12-02T02:57:46.992Z,16.00
2018-12-02T03:00:16.627Z,16.83
2018-12-02T03:02:44.777Z,13.60
2018-12-02T03:05:13.976Z,14.20
2018-12-02T03:07:41.737Z,16.07
2018-12-02T03:10:12.999Z,15.83
2018-12-02T03:12:41.452Z,15.97
2018-12-02T03:15:11.666Z,16.03
2018-12-02T03:17:39.835Z,14.83
2018-12-02T03:20:10.620Z,16.10
2018-12-02T03:22:39.180Z,16.00
2018-12-02T03:25:09.631Z,15.50
2018-12-02T03:27:38.208Z,17.27
2018-12-02T03:30:12.598Z,16.37
2018-12-02T03:32:41.152Z,15.30
2018-12-02T03:35:11.572Z,13.37
2018-12-02T03:37:40.180Z,12.73
2018-12-02T03:40:12.672Z,16.97
2018-12-02T03:42:41.208Z,13.63
2018-12-02T03:45:11.150Z,12.90
2018-12-02T03:47:39.967Z,13.70
2018-12-02T03:50:17.669Z,12.90
2018-12-02T03:52:45.634Z,13.13
2018-12-02T03:55:14.627Z,14.00
2018-12-02T03:57:43.831Z,14.40
2018-12-02T04:00:19.279Z,14.17
2018-12-02T04:02:48.262Z,13.37
2018-12-02T04:05:19.725Z,13.97
2018-12-02T04:07:48.676Z,15.23
2018-12-02T04:10:17.713Z,13.93
2018-12-02T04:12:48.207Z,13.97
2018-12-02T04:15:18.670Z,16.13
2018-12-02T04:17:49.469Z,14.07
2018-12-02T04:20:19.112Z,14.03
2018-12-02T04:22:48.705Z,12.83
2018-12-02T04:25:21.067Z,14.90
2018-12-02T04:27:50.394Z,12.47
2018-12-02T04:30:20.005Z,13.30
2018-12-02T04:32:50.110Z,12.70
2018-12-02T04:35:19.406Z,13.73
2018-12-02T04:37:47.610Z,13.93
2018-12-02T04:40:15.704Z,12.80
2018-12-02T04:42:44.879Z,13.50
2018-12-02T04:45:20.018Z,14.43
2018-12-02T04:47:49.065Z,13.47
2018-12-02T04:50:20.316Z,13.97
2018-12-02T04:52:49.532Z,13.30
2018-12-02T04:55:18.824Z,12.87
2018-12-02T04:57:47.863Z,14.57
2018-12-02T05:00:19.505Z,13.10
2018-12-02T05:02:49.256Z,14.10
2018-12-02T05:05:23.831Z,13.90
2018-12-02T05:07:55.265Z,13.27
2018-12-02T05:10:24.384Z,13.63
2018-12-02T05:12:52.811Z,11.80
2018-12-02T05:15:21.987Z,13.93
2018-12-02T05:17:50.875Z,13.90
2018-12-02T05:20:22.483Z,14.57
2018-12-02T05:22:52.452Z,17.03
2018-12-02T05:25:20.762Z,17.80
2018-12-02T05:27:49.805Z,14.93
2018-12-02T05:30:20.469Z,16.80
2018-12-02T05:32:51.005Z,15.50
2018-12-02T05:35:20.717Z,13.67
2018-12-02T05:37:49.320Z,14.70
2018-12-02T05:40:23.016Z,14.33
2018-12-02T05:42:52.067Z,15.00
2018-12-02T05:45:20.776Z,14.27
2018-12-02T05:47:49.213Z,14.20
2018-12-02T05:50:20.558Z,14.80
2018-12-02T05:52:50.571Z,14.43
2018-12-02T05:55:21.333Z,12.77
2018-12-02T05:57:50.089Z,13.70
2018-12-02T06:00:19.907Z,13.97
2018-12-02T06:02:48.241Z,13.83
2018-12-02T06:05:16.567Z,14.60
2018-12-02T06:07:47.190Z,13.03
2018-12-02T06:10:17.265Z,14.80
2018-12-02T06:12:46.958Z,14.90
2018-12-02T06:15:17.262Z,13.20
2018-12-02T06:17:46.400Z,14.87
2018-12-02T06:42:33.653Z,13.07
2018-12-02T06:50:55.917Z,15.23
2018-12-02T06:59:27.307Z,15.33
2018-12-02T07:02:00.945Z,12.87
2018-12-02T07:04:32.059Z,14.23
2018-12-02T07:07:08.308Z,14.73
2018-12-02T07:09:36.706Z,12.57
2018-12-02T07:12:04.703Z,13.57
2018-12-02T07:14:33.323Z,14.00
2018-12-02T07:17:03.691Z,12.10
2018-12-02T07:19:37.244Z,13.03
2018-12-02T07:22:15.617Z,10.57
2018-12-02T07:24:44.407Z,11.87
2018-12-02T07:27:14.330Z,11.60
2018-12-02T07:29:47.435Z,11.10
2018-12-02T07:32:16.995Z,11.93
2018-12-02T07:34:44.821Z,12.93
2018-12-02T07:37:16.911Z,12.67
2018-12-02T07:40:32.755Z,13.80
2018-12-02T07:43:02.505Z,13.33
2018-12-02T07:45:33.917Z,13.63
2018-12-02T07:48:10.033Z,11.83
2018-12-02T08:03:06.169Z,9.97
2018-12-02T08:05:35.059Z,11.40
2018-12-02T08:08:03.181Z,11.87
2018-12-02T08:10:31.642Z,11.73
2018-12-02T08:12:59.769Z,11.67
2018-12-02T08:15:27.696Z,11.17
2018-12-02T08:17:59.864Z,12.50
2018-12-02T08:20:28.712Z,13.20
2018-12-02T08:22:56.417Z,14.77
2018-12-02T08:25:24.215Z,14.20
2018-12-02T08:27:52.186Z,15.30
2018-12-02T08:30:22.183Z,16.13
2018-12-02T08:32:49.898Z,14.47
2018-12-02T08:35:18.975Z,13.43
2018-12-02T08:37:48.049Z,12.93
2018-12-02T08:40:16.079Z,13.20
2018-12-02T08:42:44.321Z,13.40
2018-12-02T08:45:16.021Z,11.17
2018-12-02T08:47:44.162Z,14.90
2018-12-02T08:50:16.907Z,9.40
2018-12-02T08:52:45.476Z,11.77
2018-12-02T08:55:14.381Z,10.20
2018-12-02T08:57:42.272Z,10.27
2018-12-02T09:00:12.239Z,10.00
2018-12-02T09:02:40.013Z,10.53
2018-12-02T09:05:10.001Z,12.63
2018-12-02T09:07:37.769Z,13.90
2018-12-02T09:10:37.354Z,16.77
2018-12-02T09:13:07.036Z,13.50
2018-12-02T09:15:34.912Z,15.37
2018-12-02T09:18:02.930Z,11.73
2018-12-02T09:20:32.300Z,10.00
2018-12-02T09:23:00.200Z,10.30
2018-12-02T09:25:27.847Z,8.97
2018-12-02T09:27:55.651Z,10.13
2018-12-02T09:30:26.131Z,13.43
2018-12-02T09:32:54.112Z,9.13
2018-12-02T09:35:22.127Z,4.87
2018-12-02T09:37:50.062Z,5.80
2018-12-02T09:40:17.826Z,4.73
2018-12-02T09:42:49.579Z,4.87
2018-12-02T09:45:19.435Z,3.63
2018-12-02T09:47:48.364Z,3.87
2018-12-02T09:50:17.391Z,3.00
2018-12-02T09:52:47.397Z,4.17
2018-12-02T09:55:23.746Z,2.83
2018-12-02T09:57:52.173Z,3.00
2018-12-02T10:00:20.656Z,2.30
2018-12-02T10:02:48.488Z,2.23
2018-12-02T10:05:16.327Z,2.50
2018-12-02T10:07:44.759Z,1.83
2018-12-02T10:10:22.162Z,1.60
2018-12-02T10:13:02.509Z,1.93
2018-12-02T10:15:30.382Z,1.90
2018-12-02T10:17:58.186Z,2.77
2018-12-02T10:20:25.992Z,1.50
2018-12-02T10:22:53.795Z,1.30
2018-12-02T10:27:57.159Z,1.10
2018-12-02T10:30:25.464Z,1.07
2018-12-02T10:33:02.916Z,1.17
2018-12-02T10:35:30.710Z,0.90
2018-12-02T10:37:58.488Z,0.80
2018-12-02T10:40:27.171Z,0.70
2018-12-02T10:42:54.957Z,1.40
2018-12-02T10:45:24.695Z,0.87
2018-12-02T10:47:54.366Z,0.97
2018-12-02T10:50:23.710Z,0.63
2018-12-02T10:52:52.708Z,0.70
2018-12-02T10:55:36.100Z,0.80
2018-12-02T10:58:05.963Z,0.50
2018-12-02T11:01:42.850Z,0.53
2018-12-02T11:04:10.731Z,0.70
2018-12-02T11:06:39.520Z,1.13
2018-12-02T11:09:10.872Z,0.70
2018-12-02T11:11:38.844Z,0.80
2018-12-02T11:14:06.699Z,0.80
2018-12-02T11:16:34.598Z,0.77
2018-12-02T11:21:38.815Z,0.90
2018-12-02T11:24:08.610Z,0.70
2018-12-02T11:26:36.760Z,0.80
2018-12-02T11:29:04.947Z,0.50
2018-12-02T11:31:32.770Z,1.00
2018-12-02T11:34:00.879Z,0.73
2018-12-02T11:36:29.048Z,0.93
2018-12-02T11:38:56.743Z,0.97
2018-12-02T11:41:25.695Z,1.07
2018-12-02T11:43:53.409Z,1.13
2018-12-02T11:46:21.053Z,0.90
2018-12-02T11:48:48.756Z,0.50
2018-12-02T11:51:16.501Z,1.00
2018-12-02T11:53:44.228Z,0.90
2018-12-02T11:56:11.874Z,0.87
2018-12-02T11:58:39.695Z,0.50
2018-12-02T12:01:07.160Z,0.67
2018-12-02T12:03:34.894Z,0.97
2018-12-02T12:06:02.591Z,0.90
2018-12-02T12:11:04.598Z,1.10
2018-12-02T12:13:32.438Z,0.67
2018-12-02T12:16:00.451Z,1.10
2018-12-02T12:18:28.179Z,0.77
2018-12-02T12:21:00.219Z,0.90
2018-12-02T12:23:28.904Z,1.00
2018-12-02T12:25:56.593Z,0.60
2018-12-02T12:28:26.548Z,0.70
2018-12-02T12:30:54.368Z,0.40
2018-12-02T12:33:23.278Z,0.60
2018-12-02T12:35:51.708Z,0.90
2018-12-02T12:38:19.570Z,0.70
2018-12-02T12:40:49.915Z,0.70
2018-12-02T12:43:35.739Z,0.73
2018-12-02T12:46:04.340Z,0.80
2018-12-02T12:48:33.762Z,0.77
2018-12-02T12:51:01.655Z,0.70
2018-12-02T12:53:29.855Z,0.50
2018-12-02T12:55:58.239Z,0.70
2018-12-02T12:58:26.554Z,0.67
2018-12-02T13:00:55.923Z,0.70
2018-12-02T13:03:24.210Z,1.00
2018-12-02T13:05:52.088Z,0.60
2018-12-02T13:08:22.065Z,0.60
2018-12-02T13:10:51.568Z,0.73
2018-12-02T13:13:19.960Z,0.57
2018-12-02T13:15:47.764Z,0.60
2018-12-02T13:18:16.647Z,0.77
2018-12-02T13:20:48.271Z,0.83
2018-12-02T13:23:16.567Z,1.23
2018-12-02T13:25:44.540Z,0.67
2018-12-02T13:28:12.465Z,0.60
2018-12-02T13:30:40.822Z,0.63
2018-12-02T13:33:09.449Z,0.50
2018-12-02T13:35:39.379Z,0.90
2018-12-02T13:38:12.732Z,0.60
2018-12-02T13:40:41.624Z,0.57
2018-12-02T13:43:14.860Z,0.83
2018-12-02T13:45:42.968Z,0.60
2018-12-02T13:48:10.840Z,0.80
2018-12-02T13:50:39.019Z,1.00
2018-12-02T13:53:08.951Z,0.70
2018-12-02T13:55:37.830Z,0.73
2018-12-02T13:58:06.630Z,0.63
2018-12-02T14:00:36.658Z,0.73
2018-12-02T14:03:07.792Z,0.80
2018-12-02T14:05:43.401Z,0.60
2018-12-02T14:08:12.156Z,0.80
2018-12-02T14:10:39.967Z,1.33
2018-12-02T14:13:11.263Z,1.00
2018-12-02T14:15:51.781Z,0.60
2018-12-02T14:18:25.104Z,0.80
2018-12-02T14:20:53.385Z,0.60
2018-12-02T14:23:22.184Z,0.50
2018-12-02T14:25:52.220Z,0.70
2018-12-02T14:28:26.644Z,0.90
2018-12-02T14:30:54.634Z,0.93
2018-12-02T14:33:24.551Z,1.00
2018-12-02T14:35:53.284Z,0.80
2018-12-02T14:38:21.408Z,0.60
2018-12-02T14:40:49.407Z,0.80
2018-12-02T14:43:17.890Z,0.97
2018-12-02T14:45:47.001Z,0.63
2018-12-02T14:48:16.778Z,0.70
2018-12-02T14:50:44.541Z,0.70
2018-12-02T14:53:12.354Z,1.20
2018-12-02T14:55:40.636Z,0.80
2018-12-02T14:58:11.144Z,0.90
2018-12-02T15:00:40.602Z,0.80
2018-12-02T15:03:09.990Z,0.90
2018-12-02T15:05:43.764Z,0.77
2018-12-02T15:08:13.965Z,0.70
2018-12-02T15:10:52.444Z,0.90
2018-12-02T15:13:21.156Z,1.00
2018-12-02T15:15:51.115Z,0.80
2018-12-02T15:18:21.468Z,1.30
2018-12-02T15:20:50.936Z,1.00
2018-12-02T15:23:20.499Z,0.90
2018-12-02T15:25:50.096Z,1.07
2018-12-02T15:28:19.060Z,1.10
2018-12-02T15:30:48.824Z,1.20
2018-12-02T15:33:18.873Z,1.17
2018-12-02T15:35:47.500Z,1.40
2018-12-02T15:38:16.571Z,2.10
2018-12-02T15:40:48.148Z,1.80
2018-12-02T15:43:19.004Z,1.30
2018-12-02T15:45:47.764Z,2.00
2018-12-02T15:48:21.959Z,1.00
2018-12-02T15:59:44.416Z,1.10
2018-12-02T16:05:18.943Z,1.17
2018-12-02T16:21:53.640Z,1.43
2018-12-02T16:29:58.991Z,1.40
2018-12-02T16:35:06.689Z,1.50
2018-12-02T16:37:41.091Z,1.33
2018-12-02T16:40:11.811Z,1.30
2018-12-02T16:42:44.859Z,1.47
2018-12-02T16:45:14.996Z,1.40
2018-12-02T16:47:52.956Z,1.47
2018-12-02T16:50:28.489Z,1.83
2018-12-02T16:53:20.108Z,2.50
2018-12-02T16:55:54.512Z,1.93
2018-12-02T16:58:40.667Z,1.80
2018-12-02T17:03:55.425Z,1.93
2018-12-02T17:06:25.981Z,1.23
2018-12-02T17:09:00.015Z,1.27
2018-12-02T17:17:16.186Z,1.47
2018-12-02T17:19:55.571Z,1.20
2018-12-02T17:22:34.504Z,1.30
2018-12-02T17:27:59.168Z,1.00
2018-12-02T17:30:54.517Z,1.50
2018-12-02T18:13:22.132Z,1.27
2018-12-02T18:39:05.092Z,1.20
2018-12-02T18:41:46.275Z,0.83
2018-12-02T18:47:17.810Z,0.63
2018-12-02T18:55:12.511Z,0.70
2018-12-02T18:57:47.205Z,0.80
2018-12-02T19:00:23.514Z,0.87
2018-12-02T19:02:59.834Z,0.80
2018-12-02T19:05:33.394Z,1.00
2018-12-02T19:08:07.577Z,0.80
2018-12-02T19:10:38.088Z,0.80
2018-12-02T19:13:17.644Z,0.60
2018-12-02T19:18:45.832Z,0.73
2018-12-02T19:21:30.526Z,0.90
2018-12-02T19:24:01.423Z,0.90
2018-12-02T19:26:32.666Z,1.00
2018-12-02T19:29:10.807Z,1.00
2018-12-02T19:31:38.880Z,0.77
2018-12-02T19:34:10.086Z,1.77
2018-12-02T19:36:45.075Z,2.20
2018-12-02T19:39:16.280Z,1.30
2018-12-02T19:41:49.872Z,1.40
2018-12-02T19:44:21.403Z,1.70
2018-12-02T19:46:53.632Z,1.50
2018-12-02T19:49:26.114Z,1.13
2018-12-02T19:54:49.720Z,1.70
2018-12-02T19:57:20.623Z,0.80
2018-12-02T19:59:50.103Z,1.10
2018-12-02T20:02:23.203Z,1.17
2018-12-02T20:07:31.563Z,1.37
2018-12-02T20:09:59.932Z,1.10
2018-12-02T20:12:31.103Z,1.53
2018-12-02T20:15:11.817Z,1.30
2018-12-02T20:17:42.004Z,1.00
2018-12-02T20:20:27.536Z,1.33
2018-12-02T20:23:03.659Z,1.30
2018-12-02T20:25:39.365Z,0.90
2018-12-02T20:28:20.456Z,0.90
2018-12-02T20:30:49.943Z,0.90
2018-12-02T20:33:19.150Z,0.93
2018-12-02T20:35:47.088Z,0.80
2018-12-02T20:38:20.575Z,2.30
2018-12-02T20:40:50.247Z,1.00
2018-12-02T20:43:22.905Z,1.27
2018-12-02T20:46:12.020Z,0.90
2018-12-02T20:48:54.472Z,0.90
2018-12-02T20:51:25.095Z,0.90
2018-12-02T20:53:57.205Z,0.77
2018-12-02T20:56:24.897Z,0.80
2018-12-02T20:58:54.772Z,1.10
2018-12-02T21:01:22.438Z,0.70
2018-12-02T21:06:36.938Z,0.90
2018-12-02T21:09:08.352Z,1.23
2018-12-02T21:11:40.630Z,1.73
2018-12-02T21:14:06.484Z,1.00
2018-12-02T21:16:34.846Z,0.77
2018-12-02T21:19:09.584Z,1.07
2018-12-02T21:21:43.095Z,1.13
2018-12-02T21:24:21.168Z,0.93
2018-12-02T21:26:50.111Z,1.00
2018-12-02T21:29:19.166Z,1.50
2018-12-02T21:31:50.165Z,0.80
2018-12-02T21:34:31.721Z,0.80
2018-12-02T21:37:02.140Z,0.90
2018-12-02T21:39:32.324Z,0.70
2018-12-02T21:42:14.605Z,0.67
2018-12-02T21:44:50.271Z,0.70
2018-12-02T21:47:21.449Z,0.77
2018-12-02T21:49:55.770Z,0.60
2018-12-02T21:52:23.541Z,0.80
2018-12-02T21:54:52.079Z,0.53
2018-12-02T21:59:59.461Z,1.00
2018-12-02T22:02:27.152Z,0.70
2018-12-02T22:04:54.863Z,1.00
2018-12-02T22:07:22.944Z,0.80
2018-12-02T22:09:51.751Z,0.57
2018-12-02T22:12:20.893Z,1.07
2018-12-02T22:14:49.847Z,1.33
2018-12-02T22:17:17.827Z,0.70
2018-12-02T22:19:46.424Z,0.57
2018-12-02T22:22:14.866Z,0.50
2018-12-02T22:24:48.832Z,0.50
2018-12-02T22:27:19.373Z,0.50
2018-12-02T22:29:49.487Z,0.60
2018-12-02T22:32:17.937Z,0.50
2018-12-02T22:34:46.369Z,0.70
2018-12-02T22:37:14.772Z,0.60
2018-12-02T22:39:42.687Z,0.50
2018-12-02T22:42:10.631Z,0.47
2018-12-02T22:44:39.407Z,0.60
2018-12-02T22:47:07.298Z,0.70
2018-12-02T22:49:35.247Z,0.50
2018-12-02T22:52:03.159Z,0.80
2018-12-02T22:54:30.935Z,0.50
2018-12-02T22:57:01.268Z,0.60
2018-12-02T23:02:13.744Z,0.83
2018-12-02T23:04:42.256Z,0.70
2018-12-02T23:07:10.992Z,0.70
2018-12-02T23:09:39.225Z,0.40
2018-12-02T23:12:07.093Z,0.50
2018-12-02T23:14:34.967Z,0.50
2018-12-02T23:17:20.059Z,0.70
2018-12-02T23:19:48.007Z,0.60
2018-12-02T23:22:16.080Z,0.50
2018-12-02T23:24:44.003Z,0.40
2018-12-02T23:36:01.962Z,0.50
2018-12-02T23:38:29.898Z,0.40
2018-12-02T23:40:58.053Z,0.40
2018-12-02T23:43:26.688Z,0.40
2018-12-02T23:45:54.858Z,0.57
2018-12-02T23:48:22.809Z,0.60
2018-12-02T23:50:50.779Z,0.53
2018-12-02T23:53:18.726Z,0.40
2018-12-02T23:55:46.590Z,0.50
2018-12-02T23:58:14.463Z,0.60
